createdAt,value
2016-11-21T00:00:58.981Z,0
2016-11-21T00:01:58.976Z,0
2016-11-21T00:02:59.011Z,0
2016-11-21T00:03:58.970Z,0
2016-11-21T00:04:58.957Z,0
2016-11-21T00:05:58.957Z,0
2016-11-21T00:06:59.150Z,0
2016-11-21T00:07:58.949Z,0
2016-11-21T00:08:59.258Z,0
2016-11-21T00:09:58.936Z,0
2016-11-21T00:10:58.949Z,0
2016-11-21T00:11:58.923Z,0
2016-11-21T00:12:58.926Z,0
2016-11-21T00:13:58.962Z,0
2016-11-21T00:14:58.999Z,0
2016-11-21T00:15:58.906Z,0
2016-11-21T00:16:58.918Z,0
2016-11-21T00:17:59.219Z,0
2016-11-21T00:18:59.305Z,0
2016-11-21T00:19:58.888Z,0
2016-11-21T00:20:58.890Z,0
2016-11-21T00:21:58.927Z,0
2016-11-21T00:22:58.886Z,0
2016-11-21T00:23:58.878Z,0
2016-11-21T00:24:59.206Z,0
2016-11-21T00:25:58.883Z,0
2016-11-21T00:26:58.852Z,0
2016-11-21T00:27:58.844Z,0
2016-11-21T00:28:58.847Z,0
2016-11-21T00:29:58.831Z,0
2016-11-21T00:30:58.831Z,0
2016-11-21T00:31:58.825Z,0
2016-11-21T00:32:58.821Z,0
2016-11-21T00:33:58.827Z,0
2016-11-21T00:34:58.817Z,0
2016-11-21T00:35:58.815Z,0
2016-11-21T00:36:58.999Z,0
2016-11-21T00:37:58.820Z,0
2016-11-21T00:38:58.794Z,0
2016-11-21T00:39:58.781Z,0
2016-11-21T00:40:58.775Z,0
2016-11-21T00:41:58.774Z,0
2016-11-21T00:42:58.772Z,0
2016-11-21T00:43:58.769Z,0
2016-11-21T00:44:58.838Z,0
2016-11-21T00:45:58.839Z,0
2016-11-21T00:46:58.761Z,0
2016-11-21T00:47:58.753Z,0
2016-11-21T00:48:58.732Z,0
2016-11-21T00:49:58.729Z,0
2016-11-21T00:50:58.721Z,0
2016-11-21T00:51:58.976Z,0
2016-11-21T00:52:58.714Z,0
2016-11-21T00:53:58.719Z,0
2016-11-21T00:54:58.710Z,0
2016-11-21T00:55:58.709Z,0
2016-11-21T00:56:58.710Z,0
2016-11-21T00:57:58.713Z,0
2016-11-21T00:58:58.683Z,0
2016-11-21T00:59:58.684Z,0
2016-11-21T01:00:58.673Z,0
2016-11-21T01:01:58.668Z,0
2016-11-21T01:02:58.658Z,0
2016-11-21T01:03:58.655Z,0
2016-11-21T01:04:58.646Z,0
2016-11-21T01:05:58.643Z,0
2016-11-21T01:06:58.894Z,0
2016-11-21T01:07:58.640Z,0
2016-11-21T01:08:58.982Z,0
2016-11-21T01:09:58.933Z,0
2016-11-21T01:10:58.615Z,0
2016-11-21T01:11:58.613Z,0
2016-11-21T01:12:58.605Z,0
2016-11-21T01:13:58.600Z,0
2016-11-21T01:14:58.597Z,0
2016-11-21T01:15:58.595Z,0
2016-11-21T01:16:58.577Z,0
2016-11-21T01:17:58.575Z,0
2016-11-21T01:18:58.576Z,0
2016-11-21T01:19:58.576Z,0
2016-11-21T01:20:58.559Z,0
2016-11-21T01:21:58.797Z,0
2016-11-21T01:22:58.549Z,0
2016-11-21T01:23:58.541Z,0
2016-11-21T01:24:58.535Z,0
2016-11-21T01:25:58.545Z,0
2016-11-21T01:26:58.523Z,0
2016-11-21T01:27:58.526Z,0
2016-11-21T01:28:58.826Z,0
2016-11-21T01:29:58.506Z,0
2016-11-21T01:30:58.499Z,0
2016-11-21T01:31:58.493Z,0
2016-11-21T01:32:58.482Z,0
2016-11-21T01:33:58.483Z,0
2016-11-21T01:34:58.480Z,0
2016-11-21T01:35:58.471Z,0
2016-11-21T01:36:58.667Z,0
2016-11-21T01:37:58.464Z,0
2016-11-21T01:38:58.451Z,0
2016-11-21T01:39:58.472Z,0
2016-11-21T01:40:58.437Z,0
2016-11-21T01:41:58.749Z,0
2016-11-21T01:42:58.426Z,0
2016-11-21T01:43:58.426Z,0
2016-11-21T01:44:58.409Z,0
2016-11-21T01:45:58.425Z,0
2016-11-21T01:46:58.398Z,0
2016-11-21T01:47:58.639Z,0
2016-11-21T01:48:58.389Z,0
2016-11-21T01:49:58.379Z,0
2016-11-21T01:50:58.374Z,0
2016-11-21T01:51:58.677Z,0
2016-11-21T01:52:58.360Z,0
2016-11-21T01:53:58.680Z,0
2016-11-21T01:54:58.360Z,0
2016-11-21T01:55:58.344Z,0
2016-11-21T01:56:58.350Z,0
2016-11-21T01:57:58.332Z,0
2016-11-21T01:58:58.326Z,0
2016-11-21T01:59:58.649Z,0
2016-11-21T02:00:58.331Z,0
2016-11-21T02:01:58.311Z,0
2016-11-21T02:02:58.307Z,0
2016-11-21T02:03:58.300Z,0
2016-11-21T02:04:58.291Z,0
2016-11-21T02:05:58.525Z,0
2016-11-21T02:06:58.530Z,0
2016-11-21T02:07:58.276Z,0
2016-11-21T02:08:58.273Z,0
2016-11-21T02:09:58.265Z,0
2016-11-21T02:10:58.253Z,0
2016-11-21T02:11:58.244Z,0
2016-11-21T02:12:58.247Z,0
2016-11-21T02:13:58.234Z,0
2016-11-21T02:14:58.232Z,0
2016-11-21T02:15:58.220Z,0
2016-11-21T02:16:58.253Z,0
2016-11-21T02:17:58.216Z,0
2016-11-21T02:18:58.211Z,0
2016-11-21T02:19:58.212Z,0
2016-11-21T02:20:58.221Z,0
2016-11-21T02:21:58.190Z,0
2016-11-21T02:22:58.180Z,0
2016-11-21T02:23:58.176Z,0
2016-11-21T02:24:58.170Z,0
2016-11-21T02:25:58.162Z,0
2016-11-21T02:26:58.162Z,0
2016-11-21T02:27:58.161Z,0
2016-11-21T02:28:58.161Z,0
2016-11-21T02:29:58.161Z,0
2016-11-21T02:30:58.131Z,0
2016-11-21T02:31:58.132Z,0
2016-11-21T02:32:58.129Z,0
2016-11-21T02:33:58.136Z,0
2016-11-21T02:34:58.105Z,0
2016-11-21T02:35:58.098Z,0
2016-11-21T02:36:58.127Z,0
2016-11-21T02:37:58.112Z,0
2016-11-21T02:38:58.105Z,0
2016-11-21T02:39:58.077Z,0
2016-11-21T02:40:58.063Z,0
2016-11-21T02:41:58.075Z,0
2016-11-21T02:42:58.053Z,0
2016-11-21T02:43:58.048Z,0
2016-11-21T02:44:58.056Z,0
2016-11-21T02:45:58.041Z,0
2016-11-21T02:46:58.038Z,0
2016-11-21T02:47:58.037Z,0
2016-11-21T02:48:58.014Z,0
2016-11-21T02:49:58.015Z,0
2016-11-21T02:50:58.004Z,0
2016-11-21T02:51:57.992Z,0
2016-11-21T02:52:58.097Z,0
2016-11-21T02:53:58.255Z,0
2016-11-21T02:54:58.289Z,0
2016-11-21T02:55:57.968Z,0
2016-11-21T02:56:57.965Z,0
2016-11-21T02:57:57.969Z,0
2016-11-21T02:58:57.962Z,0
2016-11-21T02:59:57.942Z,0
2016-11-21T03:00:57.945Z,0
2016-11-21T03:01:57.935Z,0
2016-11-21T03:02:57.928Z,0
2016-11-21T03:03:57.916Z,0
2016-11-21T03:04:57.917Z,0
2016-11-21T03:05:57.915Z,0
2016-11-21T03:06:57.903Z,0
2016-11-21T03:07:58.301Z,0
2016-11-21T03:08:57.904Z,0
2016-11-21T03:09:57.892Z,0
2016-11-21T03:10:57.874Z,0
2016-11-21T03:11:57.886Z,0
2016-11-21T03:12:57.884Z,0
2016-11-21T03:13:57.860Z,0
2016-11-21T03:14:57.907Z,0
2016-11-21T03:15:57.843Z,0
2016-11-21T03:16:57.846Z,0
2016-11-21T03:17:57.828Z,0
2016-11-21T03:18:57.848Z,0
2016-11-21T03:19:58.104Z,0
2016-11-21T03:20:57.826Z,0
2016-11-21T03:21:57.812Z,0
2016-11-21T03:22:58.119Z,0
2016-11-21T03:23:57.811Z,0
2016-11-21T03:24:57.788Z,0
2016-11-21T03:25:57.785Z,0
2016-11-21T03:26:57.789Z,0
2016-11-21T03:27:57.788Z,0
2016-11-21T03:28:57.759Z,0
2016-11-21T03:29:57.756Z,0
2016-11-21T03:30:57.756Z,0
2016-11-21T03:31:57.740Z,0
2016-11-21T03:32:57.737Z,0
2016-11-21T03:33:57.730Z,0
2016-11-21T03:34:58.067Z,0
2016-11-21T03:35:57.724Z,0
2016-11-21T03:36:57.723Z,0
2016-11-21T03:37:58.176Z,0
2016-11-21T03:38:57.696Z,0
2016-11-21T03:39:57.696Z,0
2016-11-21T03:40:57.728Z,0
2016-11-21T03:41:57.680Z,0
2016-11-21T03:42:57.697Z,0
2016-11-21T03:43:57.679Z,0
2016-11-21T03:44:57.661Z,0
2016-11-21T03:45:57.666Z,0
2016-11-21T03:46:57.664Z,0
2016-11-21T03:47:57.643Z,0
2016-11-21T03:48:57.877Z,0
2016-11-21T03:49:57.638Z,0
2016-11-21T03:50:57.622Z,0
2016-11-21T03:51:57.611Z,0
2016-11-21T03:52:57.765Z,0
2016-11-21T03:53:57.602Z,0
2016-11-21T03:54:57.599Z,0
2016-11-21T03:55:57.593Z,0
2016-11-21T03:56:57.590Z,0
2016-11-21T03:57:57.590Z,0
2016-11-21T03:58:57.570Z,0
2016-11-21T03:59:57.571Z,0
2016-11-21T04:00:57.557Z,0
2016-11-21T04:01:57.810Z,0
2016-11-21T04:02:57.550Z,0
2016-11-21T04:03:57.536Z,0
2016-11-21T04:04:57.526Z,0
2016-11-21T04:05:57.524Z,0
2016-11-21T04:06:57.515Z,0
2016-11-21T04:07:57.774Z,0
2016-11-21T04:08:57.501Z,0
2016-11-21T04:09:57.504Z,0
2016-11-21T04:10:57.510Z,0
2016-11-21T04:11:57.497Z,0
2016-11-21T04:12:57.480Z,0
2016-11-21T04:13:57.473Z,0
2016-11-21T04:14:57.470Z,0
2016-11-21T04:15:57.464Z,0
2016-11-21T04:16:57.459Z,0
2016-11-21T04:17:57.491Z,0
2016-11-21T04:18:57.469Z,0
2016-11-21T04:19:57.462Z,0
2016-11-21T04:20:57.462Z,0
2016-11-21T04:21:57.417Z,0
2016-11-21T04:22:57.664Z,0
2016-11-21T04:23:57.667Z,0
2016-11-21T04:24:57.412Z,0
2016-11-21T04:25:57.401Z,0
2016-11-21T04:26:57.390Z,0
2016-11-21T04:27:57.710Z,0
2016-11-21T04:28:57.388Z,0
2016-11-21T04:29:57.705Z,0
2016-11-21T04:30:57.680Z,0
2016-11-21T04:31:57.364Z,0
2016-11-21T04:32:57.368Z,0
2016-11-21T04:33:57.346Z,0
2016-11-21T04:34:57.347Z,0
2016-11-21T04:35:57.342Z,0
2016-11-21T04:36:57.342Z,0
2016-11-21T04:37:57.584Z,0
2016-11-21T04:38:57.327Z,0
2016-11-21T04:39:57.305Z,0
2016-11-21T04:40:57.303Z,0
2016-11-21T04:41:57.305Z,0
2016-11-21T04:42:57.311Z,0
2016-11-21T04:43:57.303Z,0
2016-11-21T04:44:57.283Z,0
2016-11-21T04:45:57.285Z,0
2016-11-21T04:46:57.260Z,0
2016-11-21T04:47:57.264Z,0
2016-11-21T04:48:57.245Z,0
2016-11-21T04:49:57.252Z,0
2016-11-21T04:50:57.261Z,0
2016-11-21T04:51:57.282Z,0
2016-11-21T04:52:57.250Z,0
2016-11-21T04:53:57.224Z,0
2016-11-21T04:54:57.206Z,0
2016-11-21T04:55:57.210Z,0
2016-11-21T04:56:57.199Z,0
2016-11-21T04:57:57.508Z,0
2016-11-21T04:58:57.190Z,0
2016-11-21T04:59:57.486Z,0
2016-11-21T05:00:57.186Z,0
2016-11-21T05:01:57.185Z,0
2016-11-21T05:02:57.152Z,0
2016-11-21T05:03:57.155Z,0
2016-11-21T05:04:57.136Z,0
2016-11-21T05:05:57.129Z,0
2016-11-21T05:06:57.125Z,0
2016-11-21T05:07:57.126Z,0
2016-11-21T05:08:57.445Z,0
2016-11-21T05:09:57.109Z,0
2016-11-21T05:10:57.093Z,0
2016-11-21T05:11:57.088Z,0
2016-11-21T05:12:57.088Z,0
2016-11-21T05:13:57.073Z,0
2016-11-21T05:14:57.075Z,0
2016-11-21T05:15:57.071Z,0
2016-11-21T05:16:57.297Z,0
2016-11-21T05:17:57.049Z,0
2016-11-21T05:18:57.042Z,0
2016-11-21T05:19:57.044Z,0
2016-11-21T05:20:57.038Z,0
2016-11-21T05:21:57.030Z,0
2016-11-21T05:22:57.034Z,0
2016-11-21T05:23:57.318Z,0
2016-11-21T05:24:57.007Z,0
2016-11-21T05:25:56.996Z,0
2016-11-21T05:26:56.992Z,0
2016-11-21T05:27:56.986Z,0
2016-11-21T05:28:56.982Z,0
2016-11-21T05:29:56.969Z,0
2016-11-21T05:30:56.971Z,0
2016-11-21T05:31:56.965Z,0
2016-11-21T05:32:56.973Z,0
2016-11-21T05:33:56.947Z,0
2016-11-21T05:34:56.945Z,0
2016-11-21T05:35:56.936Z,0
2016-11-21T05:36:56.947Z,0
2016-11-21T05:37:56.932Z,0
2016-11-21T05:38:57.064Z,0
2016-11-21T05:39:56.937Z,0
2016-11-21T05:40:56.928Z,0
2016-11-21T05:41:56.939Z,0
2016-11-21T05:42:56.923Z,0
2016-11-21T05:43:56.900Z,0
2016-11-21T05:44:56.927Z,0
2016-11-21T05:45:56.879Z,0
2016-11-21T05:46:56.895Z,0
2016-11-21T05:47:56.873Z,0
2016-11-21T05:48:56.899Z,0
2016-11-21T05:49:56.872Z,0
2016-11-21T05:50:56.886Z,0
2016-11-21T05:51:56.841Z,0
2016-11-21T05:52:57.192Z,0
2016-11-21T05:53:56.939Z,0
2016-11-21T05:54:56.830Z,0
2016-11-21T05:55:56.823Z,0
2016-11-21T05:56:56.822Z,0
2016-11-21T05:57:56.803Z,0
2016-11-21T05:58:56.811Z,0
2016-11-21T05:59:56.784Z,0
2016-11-21T06:00:56.785Z,0
2016-11-21T06:01:56.769Z,0
2016-11-21T06:02:56.777Z,0
2016-11-21T06:03:57.081Z,0
2016-11-21T06:04:57.073Z,0
2016-11-21T06:05:56.756Z,0
2016-11-21T06:06:56.743Z,0
2016-11-21T06:07:56.737Z,0
2016-11-21T06:08:57.224Z,0
2016-11-21T06:09:56.725Z,4
2016-11-21T06:10:56.725Z,4
2016-11-21T06:11:56.718Z,4
2016-11-21T06:12:56.708Z,4
2016-11-21T06:13:56.715Z,0
2016-11-21T06:14:56.942Z,4
2016-11-21T06:15:56.702Z,4
2016-11-21T06:16:56.683Z,8
2016-11-21T06:17:56.677Z,4
2016-11-21T06:18:56.984Z,8
2016-11-21T06:19:56.668Z,4
2016-11-21T06:20:56.665Z,8
2016-11-21T06:21:56.653Z,8
2016-11-21T06:22:56.649Z,8
2016-11-21T06:23:56.992Z,12
2016-11-21T06:24:56.636Z,12
2016-11-21T06:25:56.626Z,16
2016-11-21T06:26:56.891Z,12
2016-11-21T06:27:56.624Z,16
2016-11-21T06:28:56.865Z,16
2016-11-21T06:29:56.651Z,16
2016-11-21T06:30:56.605Z,20
2016-11-21T06:31:56.594Z,24
2016-11-21T06:32:56.595Z,24
2016-11-21T06:33:56.590Z,24
2016-11-21T06:34:56.577Z,28
2016-11-21T06:35:56.575Z,28
2016-11-21T06:36:56.576Z,28
2016-11-21T06:37:56.565Z,28
2016-11-21T06:38:56.903Z,32
2016-11-21T06:39:56.546Z,36
2016-11-21T06:40:56.540Z,36
2016-11-21T06:41:56.539Z,40
2016-11-21T06:42:56.539Z,48
2016-11-21T06:43:56.543Z,56
2016-11-21T06:44:56.535Z,64
2016-11-21T06:45:56.545Z,72
2016-11-21T06:46:56.521Z,80
2016-11-21T06:47:56.508Z,88
2016-11-21T06:48:56.501Z,100
2016-11-21T06:49:56.495Z,108
2016-11-21T06:50:56.480Z,116
2016-11-21T06:51:56.475Z,132
2016-11-21T06:52:56.730Z,144
2016-11-21T06:53:56.613Z,156
2016-11-21T06:54:56.463Z,168
2016-11-21T06:55:56.455Z,176
2016-11-21T06:56:56.445Z,188
2016-11-21T06:57:56.437Z,204
2016-11-21T06:58:56.434Z,216
2016-11-21T06:59:56.434Z,228
2016-11-21T07:00:56.423Z,248
2016-11-21T07:01:56.421Z,268
2016-11-21T07:02:56.414Z,284
2016-11-21T07:03:56.414Z,304
2016-11-21T07:04:56.411Z,324
2016-11-21T07:05:56.408Z,344
2016-11-21T07:06:56.422Z,368
2016-11-21T07:07:56.381Z,400
2016-11-21T07:08:56.384Z,432
2016-11-21T07:09:56.686Z,472
2016-11-21T07:10:56.371Z,516
2016-11-21T07:11:56.361Z,560
2016-11-21T07:12:56.357Z,612
2016-11-21T07:13:56.355Z,664
2016-11-21T07:14:56.345Z,720
2016-11-21T07:15:56.344Z,768
2016-11-21T07:16:56.352Z,820
2016-11-21T07:17:56.339Z,872
2016-11-21T07:18:56.328Z,924
2016-11-21T07:19:56.328Z,968
2016-11-21T07:20:56.319Z,992
2016-11-21T07:21:56.556Z,1000
2016-11-21T07:22:56.307Z,1000
2016-11-21T07:23:56.300Z,1004
2016-11-21T07:24:56.295Z,1008
2016-11-21T07:25:56.288Z,1008
2016-11-21T07:26:56.526Z,1004
2016-11-21T07:27:56.283Z,1008
2016-11-21T07:28:56.268Z,1016
2016-11-21T07:29:56.316Z,1036
2016-11-21T07:30:56.262Z,1056
2016-11-21T07:31:56.261Z,1080
2016-11-21T07:32:56.264Z,1108
2016-11-21T07:33:56.263Z,1148
2016-11-21T07:34:56.262Z,1192
2016-11-21T07:35:56.242Z,1228
2016-11-21T07:36:56.232Z,1260
2016-11-21T07:37:56.226Z,1284
2016-11-21T07:38:56.219Z,1316
2016-11-21T07:39:56.224Z,1340
2016-11-21T07:40:56.226Z,1368
2016-11-21T07:41:56.212Z,1372
2016-11-21T07:42:56.220Z,1380
2016-11-21T07:43:56.535Z,1392
2016-11-21T07:44:56.210Z,1408
2016-11-21T07:45:56.209Z,1424
2016-11-21T07:46:56.188Z,1452
2016-11-21T07:47:56.183Z,1476
2016-11-21T07:48:56.177Z,1508
2016-11-21T07:49:56.172Z,1540
2016-11-21T07:50:56.168Z,1572
2016-11-21T07:51:56.170Z,1620
2016-11-21T07:52:56.161Z,1676
2016-11-21T07:53:56.154Z,1740
2016-11-21T07:54:56.275Z,1804
2016-11-21T07:55:56.147Z,1892
2016-11-21T07:56:56.138Z,1976
2016-11-21T07:57:56.143Z,2052
2016-11-21T07:58:56.135Z,2120
2016-11-21T07:59:56.136Z,2164
2016-11-21T08:00:56.133Z,2200
2016-11-21T08:01:56.119Z,2244
2016-11-21T08:02:56.113Z,2288
2016-11-21T08:03:56.115Z,2352
2016-11-21T08:04:56.108Z,2428
2016-11-21T08:05:56.103Z,2540
2016-11-21T08:06:56.098Z,2664
2016-11-21T08:07:56.091Z,2784
2016-11-21T08:08:56.093Z,2900
2016-11-21T08:09:56.435Z,3072
2016-11-21T08:10:56.092Z,3312
2016-11-21T08:11:56.076Z,3500
2016-11-21T08:12:56.067Z,3652
2016-11-21T08:13:56.080Z,3620
2016-11-21T08:14:56.061Z,3468
2016-11-21T08:15:56.059Z,3556
2016-11-21T08:16:56.059Z,3580
2016-11-21T08:17:56.061Z,3732
2016-11-21T08:18:56.047Z,3500
2016-11-21T08:19:56.042Z,3460
2016-11-21T08:20:56.042Z,3448
2016-11-21T08:21:56.035Z,3472
2016-11-21T08:22:56.030Z,3484
2016-11-21T08:23:56.030Z,3512
2016-11-21T08:24:56.125Z,3528
2016-11-21T08:25:56.026Z,3564
2016-11-21T08:26:56.020Z,3592
2016-11-21T08:27:56.257Z,3632
2016-11-21T08:28:56.010Z,3680
2016-11-21T08:29:56.455Z,3756
2016-11-21T08:30:56.002Z,3856
2016-11-21T08:31:56.413Z,3912
2016-11-21T08:32:55.998Z,3968
2016-11-21T08:33:55.994Z,3972
2016-11-21T08:34:55.987Z,3976
2016-11-21T08:35:55.992Z,4000
2016-11-21T08:36:55.989Z,4108
2016-11-21T08:37:55.984Z,4108
2016-11-21T08:38:55.976Z,4072
2016-11-21T08:39:56.541Z,4048
2016-11-21T08:40:55.978Z,4020
2016-11-21T08:41:55.993Z,4040
2016-11-21T08:42:55.994Z,4036
2016-11-21T08:43:55.957Z,4012
2016-11-21T08:44:55.960Z,4024
2016-11-21T08:45:55.955Z,4040
2016-11-21T08:46:55.952Z,4068
2016-11-21T08:47:55.956Z,4096
2016-11-21T08:48:55.942Z,4104
2016-11-21T08:49:56.259Z,4080
2016-11-21T08:50:55.939Z,4060
2016-11-21T08:51:55.940Z,4064
2016-11-21T08:52:55.936Z,4060
2016-11-21T08:53:55.936Z,4056
2016-11-21T08:54:56.085Z,4064
2016-11-21T08:55:55.931Z,4076
2016-11-21T08:56:55.930Z,4100
2016-11-21T08:57:55.925Z,4128
2016-11-21T08:58:55.927Z,4120
2016-11-21T08:59:55.925Z,4096
2016-11-21T09:00:55.920Z,4036
2016-11-21T09:01:55.921Z,3964
2016-11-21T09:02:55.904Z,3872
2016-11-21T09:03:55.902Z,3788
2016-11-21T09:04:55.897Z,3632
2016-11-21T09:05:55.897Z,3512
2016-11-21T09:06:55.892Z,3396
2016-11-21T09:07:55.890Z,3308
2016-11-21T09:08:55.901Z,3232
2016-11-21T09:09:56.389Z,3176
2016-11-21T09:10:55.878Z,3152
2016-11-21T09:11:55.892Z,3148
2016-11-21T09:12:55.884Z,3144
2016-11-21T09:13:55.915Z,3144
2016-11-21T09:14:56.119Z,3144
2016-11-21T09:15:55.872Z,3132
2016-11-21T09:16:55.881Z,3128
2016-11-21T09:17:55.880Z,3128
2016-11-21T09:18:55.888Z,3132
2016-11-21T09:19:55.857Z,3148
2016-11-21T09:20:55.859Z,3164
2016-11-21T09:21:56.170Z,3188
2016-11-21T09:22:55.847Z,3204
2016-11-21T09:23:56.188Z,3216
2016-11-21T09:24:56.100Z,3236
2016-11-21T09:25:55.843Z,3256
2016-11-21T09:26:55.841Z,3248
2016-11-21T09:27:55.864Z,3272
2016-11-21T09:28:55.834Z,3288
2016-11-21T09:29:55.837Z,3316
2016-11-21T09:30:55.829Z,3412
2016-11-21T09:31:55.835Z,3488
2016-11-21T09:32:55.841Z,3528
2016-11-21T09:33:55.837Z,3636
2016-11-21T09:34:55.831Z,3676
2016-11-21T09:35:55.819Z,3740
2016-11-21T09:36:55.816Z,3796
2016-11-21T09:37:55.812Z,3800
2016-11-21T09:38:55.812Z,3780
2016-11-21T09:39:56.115Z,3760
2016-11-21T09:40:55.806Z,3732
2016-11-21T09:41:55.803Z,3700
2016-11-21T09:42:55.802Z,3676
2016-11-21T09:43:55.805Z,3656
2016-11-21T09:44:55.800Z,3648
2016-11-21T09:45:55.790Z,3668
2016-11-21T09:46:55.802Z,3700
2016-11-21T09:47:55.787Z,3768
2016-11-21T09:48:55.784Z,3840
2016-11-21T09:49:55.786Z,3904
2016-11-21T09:50:55.788Z,3952
2016-11-21T09:51:55.780Z,3980
2016-11-21T09:52:55.777Z,4016
2016-11-21T09:53:55.768Z,4052
2016-11-21T09:54:55.820Z,4076
2016-11-21T09:55:55.805Z,4088
2016-11-21T09:56:55.771Z,4084
2016-11-21T09:57:55.761Z,4096
2016-11-21T09:58:55.762Z,4124
2016-11-21T09:59:55.781Z,4160
2016-11-21T10:00:55.756Z,4204
2016-11-21T10:01:55.764Z,4268
2016-11-21T10:02:55.754Z,4344
2016-11-21T10:03:55.751Z,4444
2016-11-21T10:04:55.998Z,4536
2016-11-21T10:05:55.758Z,4612
2016-11-21T10:06:55.752Z,4672
2016-11-21T10:07:55.743Z,4704
2016-11-21T10:08:55.755Z,4720
2016-11-21T10:09:55.888Z,4716
2016-11-21T10:10:55.740Z,4716
2016-11-21T10:11:55.737Z,4708
2016-11-21T10:12:55.746Z,4728
2016-11-21T10:13:55.731Z,4752
2016-11-21T10:14:55.745Z,4776
2016-11-21T10:15:55.748Z,4812
2016-11-21T10:16:55.978Z,4852
2016-11-21T10:17:55.728Z,4888
2016-11-21T10:18:55.724Z,4932
2016-11-21T10:19:55.970Z,4972
2016-11-21T10:20:55.720Z,5004
2016-11-21T10:21:55.749Z,5028
2016-11-21T10:22:55.720Z,5040
2016-11-21T10:23:55.719Z,5036
2016-11-21T10:24:56.180Z,5036
2016-11-21T10:25:55.713Z,5020
2016-11-21T10:26:55.713Z,5004
2016-11-21T10:27:55.718Z,4972
2016-11-21T10:28:56.045Z,4932
2016-11-21T10:29:55.708Z,4884
2016-11-21T10:30:55.713Z,4812
2016-11-21T10:31:55.713Z,4744
2016-11-21T10:32:55.749Z,4652
2016-11-21T10:33:55.698Z,4600
2016-11-21T10:34:55.707Z,4556
2016-11-21T10:35:55.701Z,4516
2016-11-21T10:36:55.698Z,4472
2016-11-21T10:37:55.698Z,4424
2016-11-21T10:38:55.703Z,4372
2016-11-21T10:39:55.994Z,4328
2016-11-21T10:40:55.697Z,4280
2016-11-21T10:41:55.697Z,4228
2016-11-21T10:42:55.689Z,4156
2016-11-21T10:43:55.694Z,4084
2016-11-21T10:44:55.694Z,4000
2016-11-21T10:45:55.693Z,3908
2016-11-21T10:46:55.695Z,3808
2016-11-21T10:47:55.688Z,3716
2016-11-21T10:48:56.010Z,3652
2016-11-21T10:49:55.691Z,3572
2016-11-21T10:50:55.689Z,3504
2016-11-21T10:51:55.689Z,3444
2016-11-21T10:52:55.692Z,3404
2016-11-21T10:53:55.676Z,3376
2016-11-21T10:54:56.194Z,3364
2016-11-21T10:55:55.671Z,3388
2016-11-21T10:56:55.673Z,3436
2016-11-21T10:57:55.701Z,3512
2016-11-21T10:58:55.667Z,3584
2016-11-21T10:59:55.668Z,3652
2016-11-21T11:00:55.670Z,3724
2016-11-21T11:01:55.664Z,3788
2016-11-21T11:02:55.663Z,3844
2016-11-21T11:03:55.676Z,3896
2016-11-21T11:04:55.668Z,3984
2016-11-21T11:05:55.667Z,4088
2016-11-21T11:06:55.656Z,4204
2016-11-21T11:07:55.655Z,4352
2016-11-21T11:08:55.651Z,4544
2016-11-21T11:09:55.951Z,4760
2016-11-21T11:10:55.648Z,4988
2016-11-21T11:11:55.648Z,5180
2016-11-21T11:12:55.652Z,5340
2016-11-21T11:13:55.646Z,5464
2016-11-21T11:14:55.649Z,5552
2016-11-21T11:15:55.646Z,5652
2016-11-21T11:16:55.647Z,5680
2016-11-21T11:17:55.645Z,5688
2016-11-21T11:18:55.645Z,5640
2016-11-21T11:19:55.951Z,5512
2016-11-21T11:20:55.881Z,5356
2016-11-21T11:21:55.649Z,5232
2016-11-21T11:22:55.635Z,5100
2016-11-21T11:23:55.638Z,4960
2016-11-21T11:24:55.800Z,4848
2016-11-21T11:25:55.646Z,4724
2016-11-21T11:26:55.625Z,4588
2016-11-21T11:27:55.629Z,4492
2016-11-21T11:28:55.625Z,4388
2016-11-21T11:29:55.950Z,4228
2016-11-21T11:30:55.618Z,4012
2016-11-21T11:31:55.626Z,3800
2016-11-21T11:32:55.630Z,3628
2016-11-21T11:33:55.618Z,3468
2016-11-21T11:34:55.622Z,3324
2016-11-21T11:35:55.619Z,3224
2016-11-21T11:36:55.623Z,3136
2016-11-21T11:37:55.867Z,3084
2016-11-21T11:38:55.634Z,3060
2016-11-21T11:39:56.024Z,3052
2016-11-21T11:40:55.612Z,3048
2016-11-21T11:41:55.620Z,2988
2016-11-21T11:42:55.606Z,2900
2016-11-21T11:43:55.616Z,2808
2016-11-21T11:44:55.928Z,2724
2016-11-21T11:45:55.614Z,2592
2016-11-21T11:46:55.612Z,2476
2016-11-21T11:47:55.614Z,2392
2016-11-21T11:48:55.615Z,2304
2016-11-21T11:49:55.612Z,2204
2016-11-21T11:50:55.616Z,2112
2016-11-21T11:51:55.604Z,2028
2016-11-21T11:52:55.597Z,1976
2016-11-21T11:53:55.605Z,1960
2016-11-21T11:54:55.698Z,1920
2016-11-21T11:55:55.604Z,1916
2016-11-21T11:56:55.605Z,1904
2016-11-21T11:57:55.600Z,1900
2016-11-21T11:58:55.597Z,1912
2016-11-21T11:59:55.594Z,1944
2016-11-21T12:00:55.594Z,1992
2016-11-21T12:01:55.596Z,2044
2016-11-21T12:02:55.595Z,2068
2016-11-21T12:03:55.594Z,2108
2016-11-21T12:04:55.606Z,2172
2016-11-21T12:05:55.896Z,2260
2016-11-21T12:06:55.601Z,2336
2016-11-21T12:07:55.901Z,2376
2016-11-21T12:08:55.599Z,2392
2016-11-21T12:09:55.594Z,2424
2016-11-21T12:10:55.574Z,2456
2016-11-21T12:11:55.599Z,2460
2016-11-21T12:12:55.581Z,2408
2016-11-21T12:13:55.583Z,2332
2016-11-21T12:14:55.577Z,2244
2016-11-21T12:15:55.572Z,2144
2016-11-21T12:16:55.580Z,2068
2016-11-21T12:17:55.580Z,2012
2016-11-21T12:18:55.580Z,1968
2016-11-21T12:19:55.573Z,1992
2016-11-21T12:20:55.572Z,2056
2016-11-21T12:21:55.581Z,2120
2016-11-21T12:22:55.567Z,2188
2016-11-21T12:23:55.571Z,2224
2016-11-21T12:24:55.565Z,2252
2016-11-21T12:25:55.584Z,2268
2016-11-21T12:26:55.583Z,2272
2016-11-21T12:27:55.578Z,2252
2016-11-21T12:28:55.577Z,2204
2016-11-21T12:29:55.572Z,2148
2016-11-21T12:30:55.574Z,2052
2016-11-21T12:31:55.805Z,1980
2016-11-21T12:32:55.812Z,1904
2016-11-21T12:33:55.552Z,1820
2016-11-21T12:34:55.875Z,1736
2016-11-21T12:35:55.563Z,1664
2016-11-21T12:36:55.582Z,1592
2016-11-21T12:37:55.561Z,1528
2016-11-21T12:38:55.890Z,1472
2016-11-21T12:39:55.564Z,1428
2016-11-21T12:40:55.572Z,1396
2016-11-21T12:41:55.566Z,1392
2016-11-21T12:42:55.565Z,1400
2016-11-21T12:43:55.564Z,1412
2016-11-21T12:44:55.569Z,1428
2016-11-21T12:45:55.552Z,1456
2016-11-21T12:46:55.557Z,1464
2016-11-21T12:47:55.535Z,1464
2016-11-21T12:48:55.531Z,1444
2016-11-21T12:49:55.564Z,1420
2016-11-21T12:50:55.556Z,1400
2016-11-21T12:51:55.560Z,1396
2016-11-21T12:52:55.529Z,1404
2016-11-21T12:53:55.772Z,1424
2016-11-21T12:54:55.573Z,1444
2016-11-21T12:55:55.532Z,1464
2016-11-21T12:56:55.535Z,1472
2016-11-21T12:57:55.541Z,1476
2016-11-21T12:58:55.533Z,1476
2016-11-21T12:59:55.535Z,1480
2016-11-21T13:00:55.555Z,1488
2016-11-21T13:01:55.838Z,1496
2016-11-21T13:02:55.832Z,1504
2016-11-21T13:03:55.527Z,1500
2016-11-21T13:04:55.517Z,1492
2016-11-21T13:05:55.528Z,1472
2016-11-21T13:06:55.522Z,1448
2016-11-21T13:07:55.531Z,1416
2016-11-21T13:08:55.496Z,1392
2016-11-21T13:09:55.532Z,1380
2016-11-21T13:10:55.519Z,1368
2016-11-21T13:11:55.502Z,1360
2016-11-21T13:12:55.524Z,1364
2016-11-21T13:13:55.511Z,1360
2016-11-21T13:14:55.500Z,1348
2016-11-21T13:15:55.801Z,1336
2016-11-21T13:16:55.500Z,1320
2016-11-21T13:17:55.807Z,1304
2016-11-21T13:18:55.494Z,1292
2016-11-21T13:19:55.500Z,1284
2016-11-21T13:20:55.504Z,1280
2016-11-21T13:21:55.502Z,1276
2016-11-21T13:22:55.731Z,1272
2016-11-21T13:23:55.504Z,1268
2016-11-21T13:24:55.490Z,1252
2016-11-21T13:25:55.533Z,1220
2016-11-21T13:26:55.493Z,1180
2016-11-21T13:27:55.492Z,1140
2016-11-21T13:28:55.508Z,1108
2016-11-21T13:29:55.484Z,1080
2016-11-21T13:30:55.477Z,1048
2016-11-21T13:31:55.473Z,1016
2016-11-21T13:32:55.509Z,984
2016-11-21T13:33:55.480Z,968
2016-11-21T13:34:55.475Z,960
2016-11-21T13:35:55.494Z,968
2016-11-21T13:36:55.458Z,984
2016-11-21T13:37:55.482Z,1000
2016-11-21T13:38:55.773Z,1024
2016-11-21T13:39:55.477Z,1048
2016-11-21T13:40:55.579Z,1060
2016-11-21T13:41:55.479Z,1064
2016-11-21T13:42:55.446Z,1052
2016-11-21T13:43:55.454Z,1044
2016-11-21T13:44:55.448Z,1044
2016-11-21T13:45:55.453Z,1048
2016-11-21T13:46:55.451Z,1048
2016-11-21T13:47:55.447Z,1040
2016-11-21T13:48:55.698Z,1036
2016-11-21T13:49:55.465Z,1036
2016-11-21T13:50:55.514Z,1036
2016-11-21T13:51:55.502Z,1048
2016-11-21T13:52:55.463Z,1068
2016-11-21T13:53:55.437Z,1088
2016-11-21T13:54:55.502Z,1104
2016-11-21T13:55:55.529Z,1112
2016-11-21T13:56:55.444Z,1100
2016-11-21T13:57:55.449Z,1080
2016-11-21T13:58:55.434Z,1072
2016-11-21T13:59:55.431Z,1056